Riverton Regional Airport
KRIW : now visible

Airfield :











YOU CAN JOIN US ON...

 
LOGIN :

Register | Disclaimer

   EN    FR    IT 

 









Legend :    VFR   Marginal VFR   IFR   Intensive IFR   Very Intensive IFR
Visi :
Ceiling :
>= 8 km
>= 3000ft
5 to 8 km
1000 to 3000 ft
1500m to 5 km
500 to 1000 ft
800 to 1500m
200 to 500 ft
< 800m
< 200 ft
Symbols :   Thunderstorms  Fog  Heavy snow  Heavy precipitations  Wind > 20 kt






- Airport Elevation : 5525 ft


KRIW - Riverton Regional

CURRENT METAR :
  • 221053Z AUTO 26005KT 10SM CLR 13/02 A2996 RMK AO2 SLP084 T01280022

EXPIRED METARs :
  • 220953Z AUTO 00000KT 10SM CLR 13/02 A2996 RMK AO2 SLP084 T01330022
  • 220853Z AUTO 31008KT 10SM CLR 13/02 A2997 RMK AO2 SLP088 T01330022 58002

TAF KRIW
Valid from the 22 at 06:00 until the 23 at 06:00 UTC


220520Z 2206/2306 31009KT P6SM SKC
FM222000 28012G18KT P6SM SKC
FM222300 31018G26KT P6SM FEW200
FM230200 33012KT P6SM FEW200
KZLC FIR / North America



MET'MAP, your aeronautical weather chart ! - Copyright ORBIFLY December 2007 - Disclaimer

ORBIFLY MET'MAP TEAM :

Programming & Development : Alexandra Zaïnal
Concept & original design : Baudouin d'Aumeries
Assistance for programming : Marc-Olivier Méhu
Technical & hardware support : Manuel Goepfert

Contact : metmap@orbifly.com




SOURCES & CREDITS :

   NOAA       Earth
Advisory